sensor_id;sensor_type;location;lat;lon;timestamp;temperature;humidity
25945;SHT31;13742;49.306;8.636;2022-07-29T00:00:13;24.57;49.72
25945;SHT31;13742;49.306;8.636;2022-07-29T00:01:15;24.55;49.58
25945;SHT31;13742;49.306;8.636;2022-07-29T00:02:12;24.54;48.80
25945;SHT31;13742;49.306;8.636;2022-07-29T00:03:13;24.57;48.89
25945;SHT31;13742;49.306;8.636;2022-07-29T00:04:12;24.54;49.45
25945;SHT31;13742;49.306;8.636;2022-07-29T00:05:13;24.55;49.60
25945;SHT31;13742;49.306;8.636;2022-07-29T00:06:13;24.54;49.74
25945;SHT31;13742;49.306;8.636;2022-07-29T00:07:12;24.47;50.83
25945;SHT31;13742;49.306;8.636;2022-07-29T00:08:12;24.46;50.37
25945;SHT31;13742;49.306;8.636;2022-07-29T00:09:12;24.46;50.19
25945;SHT31;13742;49.306;8.636;2022-07-29T00:10:12;24.44;50.74
25945;SHT31;13742;49.306;8.636;2022-07-29T00:11:12;24.46;50.29
25945;SHT31;13742;49.306;8.636;2022-07-29T00:12:12;24.43;50.57
25945;SHT31;13742;49.306;8.636;2022-07-29T00:13:12;24.43;51.53
25945;SHT31;13742;49.306;8.636;2022-07-29T00:14:12;24.40;51.64
25945;SHT31;13742;49.306;8.636;2022-07-29T00:15:12;24.40;51.85
25945;SHT31;13742;49.306;8.636;2022-07-29T00:16:12;24.40;52.00
25945;SHT31;13742;49.306;8.636;2022-07-29T00:17:12;24.39;51.47
25945;SHT31;13742;49.306;8.636;2022-07-29T00:18:12;24.40;51.98
25945;SHT31;13742;49.306;8.636;2022-07-29T00:19:12;24.37;52.52
25945;SHT31;13742;49.306;8.636;2022-07-29T00:20:12;24.33;52.89
25945;SHT31;13742;49.306;8.636;2022-07-29T00:21:12;24.31;53.04
25945;SHT31;13742;49.306;8.636;2022-07-29T00:22:12;24.31;52.43
25945;SHT31;13742;49.306;8.636;2022-07-29T00:23:12;24.30;52.99
25945;SHT31;13742;49.306;8.636;2022-07-29T00:24:12;24.31;52.95
25945;SHT31;13742;49.306;8.636;2022-07-29T00:25:12;24.23;53.60
25945;SHT31;13742;49.306;8.636;2022-07-29T00:26:12;24.27;52.96
25945;SHT31;13742;49.306;8.636;2022-07-29T00:27:12;24.25;53.49
25945;SHT31;13742;49.306;8.636;2022-07-29T00:28:12;24.23;53.47
25945;SHT31;13742;49.306;8.636;2022-07-29T00:29:12;24.20;54.06
25945;SHT31;13742;49.306;8.636;2022-07-29T00:30:12;24.21;53.59
25945;SHT31;13742;49.306;8.636;2022-07-29T00:31:12;24.19;53.59
25945;SHT31;13742;49.306;8.636;2022-07-29T00:32:12;24.17;53.92
25945;SHT31;13742;49.306;8.636;2022-07-29T00:33:12;24.14;53.91
25945;SHT31;13742;49.306;8.636;2022-07-29T00:34:17;24.16;54.00
25945;SHT31;13742;49.306;8.636;2022-07-29T00:35:17;24.11;54.11
25945;SHT31;13742;49.306;8.636;2022-07-29T00:36:12;24.13;54.25
25945;SHT31;13742;49.306;8.636;2022-07-29T00:37:12;24.11;54.30
25945;SHT31;13742;49.306;8.636;2022-07-29T00:38:13;24.09;54.16
25945;SHT31;13742;49.306;8.636;2022-07-29T00:39:12;24.09;54.32
25945;SHT31;13742;49.306;8.636;2022-07-29T00:40:12;24.06;54.71
25945;SHT31;13742;49.306;8.636;2022-07-29T00:41:12;24.07;54.57
25945;SHT31;13742;49.306;8.636;2022-07-29T00:42:12;24.06;54.94
25945;SHT31;13742;49.306;8.636;2022-07-29T00:43:13;24.02;54.62
25945;SHT31;13742;49.306;8.636;2022-07-29T00:44:12;24.02;54.64
25945;SHT31;13742;49.306;8.636;2022-07-29T00:45:13;24.00;54.44
25945;SHT31;13742;49.306;8.636;2022-07-29T00:46:12;24.00;54.54
25945;SHT31;13742;49.306;8.636;2022-07-29T00:47:13;24.03;54.54
25945;SHT31;13742;49.306;8.636;2022-07-29T00:48:12;23.97;54.78
25945;SHT31;13742;49.306;8.636;2022-07-29T00:49:12;23.97;55.11
25945;SHT31;13742;49.306;8.636;2022-07-29T00:50:12;23.99;54.96
25945;SHT31;13742;49.306;8.636;2022-07-29T00:51:12;23.96;54.97
25945;SHT31;13742;49.306;8.636;2022-07-29T00:52:12;23.93;54.69
25945;SHT31;13742;49.306;8.636;2022-07-29T00:53:12;23.92;55.28
25945;SHT31;13742;49.306;8.636;2022-07-29T00:54:12;23.88;55.68
25945;SHT31;13742;49.306;8.636;2022-07-29T00:55:14;23.86;55.18
25945;SHT31;13742;49.306;8.636;2022-07-29T00:56:12;23.85;55.55
25945;SHT31;13742;49.306;8.636;2022-07-29T00:57:12;23.83;55.71
25945;SHT31;13742;49.306;8.636;2022-07-29T00:58:12;23.81;55.42
25945;SHT31;13742;49.306;8.636;2022-07-29T00:59:12;23.76;55.70
25945;SHT31;13742;49.306;8.636;2022-07-29T01:00:16;23.76;55.89
25945;SHT31;13742;49.306;8.636;2022-07-29T01:01:12;23.78;55.88
25945;SHT31;13742;49.306;8.636;2022-07-29T01:02:12;23.79;55.53
25945;SHT31;13742;49.306;8.636;2022-07-29T01:03:12;23.72;56.26
25945;SHT31;13742;49.306;8.636;2022-07-29T01:04:12;23.75;55.75
25945;SHT31;13742;49.306;8.636;2022-07-29T01:05:12;23.71;55.95
25945;SHT31;13742;49.306;8.636;2022-07-29T01:06:12;23.75;55.86
25945;SHT31;13742;49.306;8.636;2022-07-29T01:07:12;23.72;56.13
25945;SHT31;13742;49.306;8.636;2022-07-29T01:08:15;23.72;56.44
25945;SHT31;13742;49.306;8.636;2022-07-29T01:09:12;23.73;55.52
25945;SHT31;13742;49.306;8.636;2022-07-29T01:10:13;23.71;55.75
25945;SHT31;13742;49.306;8.636;2022-07-29T01:11:12;23.71;56.28
25945;SHT31;13742;49.306;8.636;2022-07-29T01:12:18;23.72;56.08
25945;SHT31;13742;49.306;8.636;2022-07-29T01:13:13;23.72;55.81
25945;SHT31;13742;49.306;8.636;2022-07-29T01:14:12;23.72;55.78
25945;SHT31;13742;49.306;8.636;2022-07-29T01:15:12;23.69;56.15
25945;SHT31;13742;49.306;8.636;2022-07-29T01:16:21;23.68;55.84
25945;SHT31;13742;49.306;8.636;2022-07-29T01:17:20;23.66;55.97
25945;SHT31;13742;49.306;8.636;2022-07-29T01:18:30;23.66;55.77
25945;SHT31;13742;49.306;8.636;2022-07-29T01:21:34;23.51;56.61
25945;SHT31;13742;49.306;8.636;2022-07-29T01:23:26;23.52;56.37
25945;SHT31;13742;49.306;8.636;2022-07-29T01:24:28;23.53;56.11
25945;SHT31;13742;49.306;8.636;2022-07-29T01:25:26;23.52;56.35
25945;SHT31;13742;49.306;8.636;2022-07-29T01:26:23;23.51;56.11
25945;SHT31;13742;49.306;8.636;2022-07-29T01:29:36;23.51;56.31
25945;SHT31;13742;49.306;8.636;2022-07-29T01:30:12;23.49;56.19
25945;SHT31;13742;49.306;8.636;2022-07-29T01:31:16;23.46;56.86
25945;SHT31;13742;49.306;8.636;2022-07-29T01:32:15;23.35;57.43
25945;SHT31;13742;49.306;8.636;2022-07-29T01:33:28;23.35;56.84
25945;SHT31;13742;49.306;8.636;2022-07-29T01:34:20;23.40;56.74
25945;SHT31;13742;49.306;8.636;2022-07-29T01:35:18;23.38;57.34
25945;SHT31;13742;49.306;8.636;2022-07-29T01:36:16;23.37;57.10
25945;SHT31;13742;49.306;8.636;2022-07-29T01:37:18;23.35;57.65
25945;SHT31;13742;49.306;8.636;2022-07-29T01:38:15;23.31;57.88
25945;SHT31;13742;49.306;8.636;2022-07-29T01:39:18;23.32;57.64
25945;SHT31;13742;49.306;8.636;2022-07-29T01:40:19;23.32;58.26
25945;SHT31;13742;49.306;8.636;2022-07-29T01:41:15;23.27;58.50
25945;SHT31;13742;49.306;8.636;2022-07-29T01:42:22;23.25;58.04
25945;SHT31;13742;49.306;8.636;2022-07-29T01:43:21;23.25;57.88
25945;SHT31;13742;49.306;8.636;2022-07-29T01:44:19;23.25;58.20
25945;SHT31;13742;49.306;8.636;2022-07-29T01:45:19;23.24;58.39
25945;SHT31;13742;49.306;8.636;2022-07-29T01:46:14;23.21;58.71
25945;SHT31;13742;49.306;8.636;2022-07-29T01:47:17;23.21;58.59
25945;SHT31;13742;49.306;8.636;2022-07-29T01:48:18;23.18;58.54
25945;SHT31;13742;49.306;8.636;2022-07-29T01:49:15;23.18;58.83
25945;SHT31;13742;49.306;8.636;2022-07-29T01:50:14;23.13;58.90
25945;SHT31;13742;49.306;8.636;2022-07-29T01:51:18;23.11;59.02
25945;SHT31;13742;49.306;8.636;2022-07-29T01:52:21;23.09;59.37
25945;SHT31;13742;49.306;8.636;2022-07-29T01:53:16;23.10;59.25
25945;SHT31;13742;49.306;8.636;2022-07-29T01:54:20;23.07;59.22
25945;SHT31;13742;49.306;8.636;2022-07-29T01:55:16;23.07;59.21
25945;SHT31;13742;49.306;8.636;2022-07-29T01:56:13;23.01;59.66
25945;SHT31;13742;49.306;8.636;2022-07-29T01:57:14;23.04;59.45
25945;SHT31;13742;49.306;8.636;2022-07-29T01:58:14;23.07;59.58
25945;SHT31;13742;49.306;8.636;2022-07-29T01:59:12;23.07;59.39
25945;SHT31;13742;49.306;8.636;2022-07-29T02:00:13;23.00;59.90
25945;SHT31;13742;49.306;8.636;2022-07-29T02:01:13;22.98;59.89
25945;SHT31;13742;49.306;8.636;2022-07-29T02:02:14;23.01;59.77
25945;SHT31;13742;49.306;8.636;2022-07-29T02:03:13;23.00;60.09
25945;SHT31;13742;49.306;8.636;2022-07-29T02:04:12;23.01;60.08
25945;SHT31;13742;49.306;8.636;2022-07-29T02:05:14;23.01;59.87
25945;SHT31;13742;49.306;8.636;2022-07-29T02:06:17;23.01;60.14
25945;SHT31;13742;49.306;8.636;2022-07-29T02:07:15;22.98;60.19
25945;SHT31;13742;49.306;8.636;2022-07-29T02:08:13;22.98;60.16
25945;SHT31;13742;49.306;8.636;2022-07-29T02:09:13;23.03;60.18
25945;SHT31;13742;49.306;8.636;2022-07-29T02:10:13;22.94;60.48
25945;SHT31;13742;49.306;8.636;2022-07-29T02:11:12;22.90;60.66
25945;SHT31;13742;49.306;8.636;2022-07-29T02:12:14;22.89;60.71
25945;SHT31;13742;49.306;8.636;2022-07-29T02:13:13;22.86;60.74
25945;SHT31;13742;49.306;8.636;2022-07-29T02:14:13;22.89;60.15
25945;SHT31;13742;49.306;8.636;2022-07-29T02:15:13;22.91;59.77
25945;SHT31;13742;49.306;8.636;2022-07-29T02:16:12;22.91;60.40
25945;SHT31;13742;49.306;8.636;2022-07-29T02:17:13;22.91;60.28
25945;SHT31;13742;49.306;8.636;2022-07-29T02:18:17;22.94;60.31
25945;SHT31;13742;49.306;8.636;2022-07-29T02:19:13;22.94;60.20
25945;SHT31;13742;49.306;8.636;2022-07-29T02:20:12;22.93;60.24
25945;SHT31;13742;49.306;8.636;2022-07-29T02:21:13;22.90;59.99
25945;SHT31;13742;49.306;8.636;2022-07-29T02:22:13;22.89;60.12
25945;SHT31;13742;49.306;8.636;2022-07-29T02:23:14;22.91;60.26
25945;SHT31;13742;49.306;8.636;2022-07-29T02:24:12;22.86;60.49
25945;SHT31;13742;49.306;8.636;2022-07-29T02:25:13;22.89;60.29
25945;SHT31;13742;49.306;8.636;2022-07-29T02:26:12;22.86;60.53
25945;SHT31;13742;49.306;8.636;2022-07-29T02:27:13;22.84;60.87
25945;SHT31;13742;49.306;8.636;2022-07-29T02:28:12;22.86;60.32
25945;SHT31;13742;49.306;8.636;2022-07-29T02:29:13;22.86;60.55
25945;SHT31;13742;49.306;8.636;2022-07-29T02:30:12;22.80;60.88
25945;SHT31;13742;49.306;8.636;2022-07-29T02:31:13;22.83;60.74
25945;SHT31;13742;49.306;8.636;2022-07-29T02:32:13;22.82;60.66
25945;SHT31;13742;49.306;8.636;2022-07-29T02:33:14;22.80;61.03
25945;SHT31;13742;49.306;8.636;2022-07-29T02:34:12;22.82;60.41
25945;SHT31;13742;49.306;8.636;2022-07-29T02:35:14;22.80;61.20
25945;SHT31;13742;49.306;8.636;2022-07-29T02:36:12;22.79;61.00
25945;SHT31;13742;49.306;8.636;2022-07-29T02:37:12;22.77;61.33
25945;SHT31;13742;49.306;8.636;2022-07-29T02:38:17;22.76;61.08
25945;SHT31;13742;49.306;8.636;2022-07-29T02:39:13;22.76;61.11
25945;SHT31;13742;49.306;8.636;2022-07-29T02:40:12;22.74;61.10
25945;SHT31;13742;49.306;8.636;2022-07-29T02:41:15;22.74;61.02
25945;SHT31;13742;49.306;8.636;2022-07-29T02:42:17;22.74;61.30
25945;SHT31;13742;49.306;8.636;2022-07-29T02:43:12;22.74;60.99
25945;SHT31;13742;49.306;8.636;2022-07-29T02:44:14;22.77;60.57
25945;SHT31;13742;49.306;8.636;2022-07-29T02:45:12;22.74;60.72
25945;SHT31;13742;49.306;8.636;2022-07-29T02:46:14;22.79;60.77
25945;SHT31;13742;49.306;8.636;2022-07-29T02:48:15;22.80;60.91
25945;SHT31;13742;49.306;8.636;2022-07-29T02:50:17;22.74;60.56
25945;SHT31;13742;49.306;8.636;2022-07-29T02:51:19;22.76;60.78
25945;SHT31;13742;49.306;8.636;2022-07-29T02:53:13;22.76;60.57
25945;SHT31;13742;49.306;8.636;2022-07-29T02:53:18;22.77;60.82
25945;SHT31;13742;49.306;8.636;2022-07-29T02:54:28;22.77;60.66
25945;SHT31;13742;49.306;8.636;2022-07-29T02:56:14;22.74;60.47
25945;SHT31;13742;49.306;8.636;2022-07-29T02:57:19;22.73;60.86
25945;SHT31;13742;49.306;8.636;2022-07-29T02:59:13;22.73;60.67
25945;SHT31;13742;49.306;8.636;2022-07-29T03:00:14;22.70;61.13
25945;SHT31;13742;49.306;8.636;2022-07-29T03:01:16;22.70;60.88
25945;SHT31;13742;49.306;8.636;2022-07-29T03:02:13;22.72;60.74
25945;SHT31;13742;49.306;8.636;2022-07-29T03:03:14;22.73;60.78
25945;SHT31;13742;49.306;8.636;2022-07-29T03:04:12;22.72;60.62
25945;SHT31;13742;49.306;8.636;2022-07-29T03:05:15;22.69;61.03
25945;SHT31;13742;49.306;8.636;2022-07-29T03:06:13;22.70;60.82
25945;SHT31;13742;49.306;8.636;2022-07-29T03:07:14;22.69;60.53
25945;SHT31;13742;49.306;8.636;2022-07-29T03:08:12;22.70;60.47
25945;SHT31;13742;49.306;8.636;2022-07-29T03:09:13;22.67;60.89
25945;SHT31;13742;49.306;8.636;2022-07-29T03:10:12;22.70;60.54
25945;SHT31;13742;49.306;8.636;2022-07-29T03:11:12;22.64;61.26
25945;SHT31;13742;49.306;8.636;2022-07-29T03:12:12;22.64;60.90
25945;SHT31;13742;49.306;8.636;2022-07-29T03:13:14;22.64;60.75
25945;SHT31;13742;49.306;8.636;2022-07-29T03:14:12;22.63;61.10
25945;SHT31;13742;49.306;8.636;2022-07-29T03:15:12;22.63;60.96
25945;SHT31;13742;49.306;8.636;2022-07-29T03:16:13;22.60;61.03
25945;SHT31;13742;49.306;8.636;2022-07-29T03:17:12;22.59;61.48
25945;SHT31;13742;49.306;8.636;2022-07-29T03:18:12;22.59;60.91
25945;SHT31;13742;49.306;8.636;2022-07-29T03:19:12;22.56;60.81
25945;SHT31;13742;49.306;8.636;2022-07-29T03:20:12;22.58;61.07
25945;SHT31;13742;49.306;8.636;2022-07-29T03:21:12;22.59;60.68
25945;SHT31;13742;49.306;8.636;2022-07-29T03:22:12;22.55;61.56
25945;SHT31;13742;49.306;8.636;2022-07-29T03:23:18;22.58;61.19
25945;SHT31;13742;49.306;8.636;2022-07-29T03:24:25;22.56;61.16
25945;SHT31;13742;49.306;8.636;2022-07-29T03:25:16;22.59;61.02
25945;SHT31;13742;49.306;8.636;2022-07-29T03:26:12;22.56;60.85
25945;SHT31;13742;49.306;8.636;2022-07-29T03:27:12;22.55;61.78
25945;SHT31;13742;49.306;8.636;2022-07-29T03:28:12;22.55;60.79
25945;SHT31;13742;49.306;8.636;2022-07-29T03:29:12;22.56;61.12
25945;SHT31;13742;49.306;8.636;2022-07-29T03:30:12;22.56;61.22
25945;SHT31;13742;49.306;8.636;2022-07-29T03:31:12;22.49;61.59
25945;SHT31;13742;49.306;8.636;2022-07-29T03:32:12;22.51;60.99
25945;SHT31;13742;49.306;8.636;2022-07-29T03:33:12;22.52;61.47
25945;SHT31;13742;49.306;8.636;2022-07-29T03:34:12;22.51;60.93
25945;SHT31;13742;49.306;8.636;2022-07-29T03:35:12;22.53;60.98
25945;SHT31;13742;49.306;8.636;2022-07-29T03:36:12;22.53;60.53
25945;SHT31;13742;49.306;8.636;2022-07-29T03:37:12;22.53;60.88
25945;SHT31;13742;49.306;8.636;2022-07-29T03:38:12;22.55;61.18
25945;SHT31;13742;49.306;8.636;2022-07-29T03:39:15;22.52;61.35
25945;SHT31;13742;49.306;8.636;2022-07-29T03:40:16;22.53;61.18
25945;SHT31;13742;49.306;8.636;2022-07-29T03:41:13;22.53;60.68
25945;SHT31;13742;49.306;8.636;2022-07-29T03:42:14;22.53;60.37
25945;SHT31;13742;49.306;8.636;2022-07-29T03:43:12;22.53;61.09
25945;SHT31;13742;49.306;8.636;2022-07-29T03:44:13;22.52;61.28
25945;SHT31;13742;49.306;8.636;2022-07-29T03:45:15;22.49;61.02
25945;SHT31;13742;49.306;8.636;2022-07-29T03:46:14;22.51;60.44
25945;SHT31;13742;49.306;8.636;2022-07-29T03:47:14;22.49;60.79
25945;SHT31;13742;49.306;8.636;2022-07-29T03:48:14;22.49;60.98
25945;SHT31;13742;49.306;8.636;2022-07-29T03:49:14;22.47;60.93
25945;SHT31;13742;49.306;8.636;2022-07-29T03:50:14;22.46;60.89
25945;SHT31;13742;49.306;8.636;2022-07-29T03:51:12;22.46;60.50
25945;SHT31;13742;49.306;8.636;2022-07-29T03:52:12;22.45;60.88
25945;SHT31;13742;49.306;8.636;2022-07-29T03:53:12;22.45;60.36
25945;SHT31;13742;49.306;8.636;2022-07-29T03:54:12;22.43;60.97
25945;SHT31;13742;49.306;8.636;2022-07-29T03:55:13;22.43;60.89
25945;SHT31;13742;49.306;8.636;2022-07-29T03:56:15;22.43;61.39
25945;SHT31;13742;49.306;8.636;2022-07-29T03:57:14;22.40;61.35
25945;SHT31;13742;49.306;8.636;2022-07-29T03:58:13;22.40;61.08
25945;SHT31;13742;49.306;8.636;2022-07-29T03:59:13;22.40;60.43
25945;SHT31;13742;49.306;8.636;2022-07-29T04:00:12;22.43;60.51
25945;SHT31;13742;49.306;8.636;2022-07-29T04:01:12;22.42;60.78
25945;SHT31;13742;49.306;8.636;2022-07-29T04:02:12;22.43;60.33
25945;SHT31;13742;49.306;8.636;2022-07-29T04:03:12;22.45;60.82
25945;SHT31;13742;49.306;8.636;2022-07-29T04:04:12;22.43;61.35
25945;SHT31;13742;49.306;8.636;2022-07-29T04:05:13;22.43;60.72
25945;SHT31;13742;49.306;8.636;2022-07-29T04:06:12;22.42;60.89
25945;SHT31;13742;49.306;8.636;2022-07-29T04:07:13;22.39;60.92
25945;SHT31;13742;49.306;8.636;2022-07-29T04:08:12;22.36;61.17
25945;SHT31;13742;49.306;8.636;2022-07-29T04:09:12;22.35;60.97
25945;SHT31;13742;49.306;8.636;2022-07-29T04:10:12;22.39;60.98
25945;SHT31;13742;49.306;8.636;2022-07-29T04:11:12;22.35;60.81
25945;SHT31;13742;49.306;8.636;2022-07-29T04:12:12;22.36;60.55
25945;SHT31;13742;49.306;8.636;2022-07-29T04:13:12;22.36;61.11
25945;SHT31;13742;49.306;8.636;2022-07-29T04:14:12;22.35;60.69
25945;SHT31;13742;49.306;8.636;2022-07-29T04:15:12;22.33;61.20
25945;SHT31;13742;49.306;8.636;2022-07-29T04:16:12;22.36;60.91
25945;SHT31;13742;49.306;8.636;2022-07-29T04:17:12;22.35;60.62
25945;SHT31;13742;49.306;8.636;2022-07-29T04:18:12;22.35;60.31
25945;SHT31;13742;49.306;8.636;2022-07-29T04:19:12;22.35;60.43
25945;SHT31;13742;49.306;8.636;2022-07-29T04:20:13;22.35;60.53
25945;SHT31;13742;49.306;8.636;2022-07-29T04:21:12;22.35;60.21
25945;SHT31;13742;49.306;8.636;2022-07-29T04:22:12;22.35;61.04
25945;SHT31;13742;49.306;8.636;2022-07-29T04:23:12;22.31;61.10
25945;SHT31;13742;49.306;8.636;2022-07-29T04:24:12;22.25;61.20
25945;SHT31;13742;49.306;8.636;2022-07-29T04:25:12;22.28;60.78
25945;SHT31;13742;49.306;8.636;2022-07-29T04:26:12;22.25;61.25
25945;SHT31;13742;49.306;8.636;2022-07-29T04:27:12;22.25;60.45
25945;SHT31;13742;49.306;8.636;2022-07-29T04:28:12;22.24;60.69
25945;SHT31;13742;49.306;8.636;2022-07-29T04:29:14;22.25;60.58
25945;SHT31;13742;49.306;8.636;2022-07-29T04:30:12;22.28;60.82
25945;SHT31;13742;49.306;8.636;2022-07-29T04:31:12;22.24;60.69
25945;SHT31;13742;49.306;8.636;2022-07-29T04:32:12;22.26;60.91
25945;SHT31;13742;49.306;8.636;2022-07-29T04:33:12;22.24;60.55
25945;SHT31;13742;49.306;8.636;2022-07-29T04:34:12;22.24;60.46
25945;SHT31;13742;49.306;8.636;2022-07-29T04:35:12;22.25;60.65
25945;SHT31;13742;49.306;8.636;2022-07-29T04:36:12;22.22;60.52
25945;SHT31;13742;49.306;8.636;2022-07-29T04:37:12;22.25;60.73
25945;SHT31;13742;49.306;8.636;2022-07-29T04:38:12;22.25;60.41
25945;SHT31;13742;49.306;8.636;2022-07-29T04:39:12;22.25;60.62
25945;SHT31;13742;49.306;8.636;2022-07-29T04:40:12;22.25;60.48
25945;SHT31;13742;49.306;8.636;2022-07-29T04:41:12;22.25;60.41
25945;SHT31;13742;49.306;8.636;2022-07-29T04:42:12;22.26;60.13
25945;SHT31;13742;49.306;8.636;2022-07-29T04:43:12;22.25;60.32
25945;SHT31;13742;49.306;8.636;2022-07-29T04:44:12;22.24;60.12
25945;SHT31;13742;49.306;8.636;2022-07-29T04:45:12;22.24;60.76
25945;SHT31;13742;49.306;8.636;2022-07-29T04:46:12;22.26;60.23
25945;SHT31;13742;49.306;8.636;2022-07-29T04:47:12;22.25;60.71
25945;SHT31;13742;49.306;8.636;2022-07-29T04:48:12;22.24;60.38
25945;SHT31;13742;49.306;8.636;2022-07-29T04:49:12;22.28;60.85
25945;SHT31;13742;49.306;8.636;2022-07-29T04:50:12;22.26;60.50
25945;SHT31;13742;49.306;8.636;2022-07-29T04:51:12;22.28;60.32
25945;SHT31;13742;49.306;8.636;2022-07-29T04:52:12;22.31;60.38
25945;SHT31;13742;49.306;8.636;2022-07-29T04:53:12;22.28;60.60
25945;SHT31;13742;49.306;8.636;2022-07-29T04:54:12;22.29;60.29
25945;SHT31;13742;49.306;8.636;2022-07-29T04:55:12;22.29;60.47
25945;SHT31;13742;49.306;8.636;2022-07-29T04:56:12;22.31;60.16
25945;SHT31;13742;49.306;8.636;2022-07-29T04:57:12;22.31;60.18
25945;SHT31;13742;49.306;8.636;2022-07-29T04:58:12;22.31;60.22
25945;SHT31;13742;49.306;8.636;2022-07-29T04:59:12;22.32;60.26
25945;SHT31;13742;49.306;8.636;2022-07-29T05:00:12;22.29;60.59
25945;SHT31;13742;49.306;8.636;2022-07-29T05:01:12;22.29;60.19
25945;SHT31;13742;49.306;8.636;2022-07-29T05:02:12;22.31;60.45
25945;SHT31;13742;49.306;8.636;2022-07-29T05:03:12;22.31;60.51
25945;SHT31;13742;49.306;8.636;2022-07-29T05:04:12;22.29;60.11
25945;SHT31;13742;49.306;8.636;2022-07-29T05:05:12;22.31;60.36
25945;SHT31;13742;49.306;8.636;2022-07-29T05:06:12;22.31;60.53
25945;SHT31;13742;49.306;8.636;2022-07-29T05:07:12;22.31;60.42
25945;SHT31;13742;49.306;8.636;2022-07-29T05:08:12;22.32;60.48
25945;SHT31;13742;49.306;8.636;2022-07-29T05:09:12;22.33;60.57
25945;SHT31;13742;49.306;8.636;2022-07-29T05:10:12;22.31;60.45
25945;SHT31;13742;49.306;8.636;2022-07-29T05:11:12;22.33;60.56
25945;SHT31;13742;49.306;8.636;2022-07-29T05:12:12;22.33;60.49
25945;SHT31;13742;49.306;8.636;2022-07-29T05:13:12;22.35;60.39
25945;SHT31;13742;49.306;8.636;2022-07-29T05:14:12;22.33;60.56
25945;SHT31;13742;49.306;8.636;2022-07-29T05:15:12;22.35;60.17
25945;SHT31;13742;49.306;8.636;2022-07-29T05:16:13;22.38;60.11
25945;SHT31;13742;49.306;8.636;2022-07-29T05:17:12;22.39;60.29
25945;SHT31;13742;49.306;8.636;2022-07-29T05:18:12;22.39;59.89
25945;SHT31;13742;49.306;8.636;2022-07-29T05:19:12;22.40;59.93
25945;SHT31;13742;49.306;8.636;2022-07-29T05:20:12;22.39;59.88
25945;SHT31;13742;49.306;8.636;2022-07-29T05:21:12;22.40;59.88
25945;SHT31;13742;49.306;8.636;2022-07-29T05:22:12;22.39;59.76
25945;SHT31;13742;49.306;8.636;2022-07-29T05:23:15;22.36;59.82
25945;SHT31;13742;49.306;8.636;2022-07-29T05:24:12;22.38;59.63
25945;SHT31;13742;49.306;8.636;2022-07-29T05:25:12;22.40;59.57
25945;SHT31;13742;49.306;8.636;2022-07-29T05:26:12;22.42;59.38
25945;SHT31;13742;49.306;8.636;2022-07-29T05:27:12;22.40;59.39
25945;SHT31;13742;49.306;8.636;2022-07-29T05:28:12;22.39;59.30
25945;SHT31;13742;49.306;8.636;2022-07-29T05:29:12;22.45;59.17
25945;SHT31;13742;49.306;8.636;2022-07-29T05:30:12;22.46;59.02
25945;SHT31;13742;49.306;8.636;2022-07-29T05:31:12;22.46;59.26
25945;SHT31;13742;49.306;8.636;2022-07-29T05:32:12;22.47;59.07
25945;SHT31;13742;49.306;8.636;2022-07-29T05:33:12;22.47;58.79
25945;SHT31;13742;49.306;8.636;2022-07-29T05:34:12;22.47;58.94
25945;SHT31;13742;49.306;8.636;2022-07-29T05:35:13;22.49;59.07
25945;SHT31;13742;49.306;8.636;2022-07-29T05:36:12;22.47;59.02
25945;SHT31;13742;49.306;8.636;2022-07-29T05:37:13;22.52;58.90
25945;SHT31;13742;49.306;8.636;2022-07-29T05:38:12;22.51;59.08
25945;SHT31;13742;49.306;8.636;2022-07-29T05:39:13;22.52;58.96
25945;SHT31;13742;49.306;8.636;2022-07-29T05:40:12;22.47;59.01
25945;SHT31;13742;49.306;8.636;2022-07-29T05:41:12;22.51;58.95
25945;SHT31;13742;49.306;8.636;2022-07-29T05:42:12;22.51;58.84
25945;SHT31;13742;49.306;8.636;2022-07-29T05:43:12;22.52;58.81
25945;SHT31;13742;49.306;8.636;2022-07-29T05:44:13;22.52;59.01
25945;SHT31;13742;49.306;8.636;2022-07-29T05:45:12;22.52;58.77
25945;SHT31;13742;49.306;8.636;2022-07-29T05:46:12;22.52;58.91
25945;SHT31;13742;49.306;8.636;2022-07-29T05:47:12;22.55;59.00
25945;SHT31;13742;49.306;8.636;2022-07-29T05:48:12;22.53;59.00
25945;SHT31;13742;49.306;8.636;2022-07-29T05:49:12;22.55;58.97
25945;SHT31;13742;49.306;8.636;2022-07-29T05:50:12;22.58;58.73
25945;SHT31;13742;49.306;8.636;2022-07-29T05:51:12;22.56;58.70
25945;SHT31;13742;49.306;8.636;2022-07-29T05:52:13;22.56;58.55
25945;SHT31;13742;49.306;8.636;2022-07-29T05:53:12;22.56;58.32
25945;SHT31;13742;49.306;8.636;2022-07-29T05:54:12;22.56;58.31
25945;SHT31;13742;49.306;8.636;2022-07-29T05:55:12;22.58;58.44
25945;SHT31;13742;49.306;8.636;2022-07-29T05:56:12;22.59;58.40
25945;SHT31;13742;49.306;8.636;2022-07-29T05:57:16;22.59;58.09
25945;SHT31;13742;49.306;8.636;2022-07-29T05:58:12;22.60;58.01
25945;SHT31;13742;49.306;8.636;2022-07-29T05:59:12;22.59;57.97
25945;SHT31;13742;49.306;8.636;2022-07-29T06:00:12;22.59;57.79
25945;SHT31;13742;49.306;8.636;2022-07-29T06:01:12;22.60;57.69
25945;SHT31;13742;49.306;8.636;2022-07-29T06:02:12;22.59;57.79
25945;SHT31;13742;49.306;8.636;2022-07-29T06:03:12;22.60;57.83
25945;SHT31;13742;49.306;8.636;2022-07-29T06:04:12;22.62;57.66
25945;SHT31;13742;49.306;8.636;2022-07-29T06:05:12;22.62;57.65
25945;SHT31;13742;49.306;8.636;2022-07-29T06:06:12;22.62;57.59
25945;SHT31;13742;49.306;8.636;2022-07-29T06:07:12;22.60;57.53
25945;SHT31;13742;49.306;8.636;2022-07-29T06:08:12;22.56;57.47
25945;SHT31;13742;49.306;8.636;2022-07-29T06:09:12;22.56;57.31
25945;SHT31;13742;49.306;8.636;2022-07-29T06:10:12;22.56;57.33
25945;SHT31;13742;49.306;8.636;2022-07-29T06:11:12;22.59;57.41
25945;SHT31;13742;49.306;8.636;2022-07-29T06:12:12;22.60;57.31
25945;SHT31;13742;49.306;8.636;2022-07-29T06:13:12;22.63;57.17
25945;SHT31;13742;49.306;8.636;2022-07-29T06:14:12;22.62;57.05
25945;SHT31;13742;49.306;8.636;2022-07-29T06:15:12;22.63;57.29
25945;SHT31;13742;49.306;8.636;2022-07-29T06:16:12;22.62;57.17
25945;SHT31;13742;49.306;8.636;2022-07-29T06:17:12;22.63;57.35
25945;SHT31;13742;49.306;8.636;2022-07-29T06:18:12;22.64;57.47
25945;SHT31;13742;49.306;8.636;2022-07-29T06:19:12;22.66;57.28
25945;SHT31;13742;49.306;8.636;2022-07-29T06:20:12;22.64;57.57
25945;SHT31;13742;49.306;8.636;2022-07-29T06:21:12;22.66;57.31
25945;SHT31;13742;49.306;8.636;2022-07-29T06:22:12;22.67;57.34
25945;SHT31;13742;49.306;8.636;2022-07-29T06:23:12;22.69;57.50
25945;SHT31;13742;49.306;8.636;2022-07-29T06:24:13;22.72;57.76
25945;SHT31;13742;49.306;8.636;2022-07-29T06:25:12;22.76;57.49
25945;SHT31;13742;49.306;8.636;2022-07-29T06:26:12;22.76;57.58
25945;SHT31;13742;49.306;8.636;2022-07-29T06:27:12;22.80;57.44